Londonderry, United Kingdom
Current Conditions -  °F | °C
As of 7:00 PM on Monday 22 Dec 2014 (Local Time) from EIDL Reporting Station
Overcast Overcast  
Wind Chill: 42°   Ceiling: 2500
Heat Index: 48°   Visibility: 5mi
Dew Point: 45°   Wind: 16mph
Humidity: 87%   Direction: 260°W
Pressure: 29.74"   Gusts: NA
Location:  54.99°N, 7.31°W
Report Text: EIDL 221900Z 26014KT 8000 FEW017 OVC025 09/07 Q1007 REDZ
Loading
Personal Weather Stations






























Interactive Weather Map New forecast layout! Learn more

10-Day Weather Forecast

Advertisements
Track Severe Weather on mobile